Terminal Aerodrome Forecast
Issued by NWS

Home | Current Version | Previous Version | Text Only | Print | Product List | Glossary On
Versions: 1 2 3 4 5 6 7 8 9 10 11 12 13 14
000
FTUS46 KSEW 031127
TAFCLM
TAF
KCLM 031127Z 0312/0412 24006KT P6SM SCT050
      TEMPO 0314/0318 -SHRA BKN020 BKN050
     FM031800 33006KT P6SM VCSH BKN035 BKN080
     FM040100 30006KT P6SM SCT050 BKN100
     FM040900 28004KT P6SM SCT020 BKN050=

USA.gov is the U.S. government's official web portal to all federal, state and local government web resources and services.